Time;durP1;ratioP1;P1;durP2;ratioP2;P2;SDS_P1;SDS_P2;PMS_P1;PMS_P2;Temp;Humidity;BMP_temperature;BMP_pressure;BME280_temperature;BME280_humidity;BME280_pressure;Samples;Min_cycle;Max_cycle;Signal;HPM_P1;HPM_P2
2022/08/21 00:01:12;;;;;;;5.13;2.73;;;;;;;;;;5082032;28;20232;-63
2022/08/21 00:03:51;;;;;;;3.37;2.40;;;;;;;;;;5067898;28;20209;-63
2022/08/21 00:06:23;;;;;;;4.27;2.70;;;;;;;;;;5068851;28;20196;-64
2022/08/21 00:09:02;;;;;;;2.80;2.40;;;;;;;;;;5069607;28;20192;-63
2022/08/21 00:11:38;;;;;;;3.20;2.50;;;;;;;;;;5058829;28;20213;-63
2022/08/21 00:14:09;;;;;;;4.07;2.53;;;;;;;;;;5086804;28;20202;-63
2022/08/21 00:16:40;;;;;;;3.10;2.30;;;;;;;;;;5073830;28;20185;-63
2022/08/21 00:19:11;;;;;;;4.47;2.80;;;;;;;;;;5071897;28;20189;-63
2022/08/21 00:21:45;;;;;;;4.60;2.40;;;;;;;;;;5074816;28;20201;-64
2022/08/21 00:24:15;;;;;;;4.67;2.80;;;;;;;;;;5084007;28;20224;-63
2022/08/21 00:26:47;;;;;;;7.43;2.80;;;;;;;;;;5079253;28;20205;-64
2022/08/21 00:29:20;;;;;;;4.10;2.73;;;;;;;;;;5080197;28;20197;-63
2022/08/21 00:31:50;;;;;;;4.43;2.43;;;;;;;;;;5077587;28;20760;-63
2022/08/21 00:34:21;;;;;;;2.90;2.53;;;;;;;;;;5081450;28;20228;-64
2022/08/21 00:36:50;;;;;;;3.63;2.57;;;;;;;;;;5091515;28;20183;-63
2022/08/21 00:39:19;;;;;;;4.60;2.73;;;;;;;;;;5073835;28;20201;-64
2022/08/21 00:41:50;;;;;;;4.43;2.60;;;;;;;;;;5087124;28;20275;-63
2022/08/21 00:44:23;;;;;;;3.43;2.53;;;;;;;;;;5073577;28;20405;-64
2022/08/21 00:46:57;;;;;;;4.23;2.90;;;;;;;;;;5088721;28;20500;-63
2022/08/21 00:49:27;;;;;;;4.73;2.90;;;;;;;;;;5088254;28;20481;-63
2022/08/21 00:52:01;;;;;;;5.37;2.60;;;;;;;;;;5084908;28;20233;-64
2022/08/21 00:54:32;;;;;;;3.90;2.63;;;;;;;;;;5064672;28;20841;-64
2022/08/21 00:57:19;;;;;;;2.97;2.17;;;;;;;;;;5085031;28;20686;-63
2022/08/21 00:59:57;;;;;;;5.23;2.40;;;;;;;;;;5074170;28;20323;-63
2022/08/21 01:02:28;;;;;;;4.77;2.50;;;;;;;;;;5051622;28;20288;-64
2022/08/21 01:05:07;;;;;;;4.97;2.77;;;;;;;;;;5066356;28;20177;-64
2022/08/21 01:07:37;;;;;;;5.67;2.40;;;;;;;;;;5051124;28;20513;-63
2022/08/21 01:10:12;;;;;;;5.23;2.37;;;;;;;;;;5061280;28;20193;-63
2022/08/21 01:12:55;;;;;;;5.53;2.70;;;;;;;;;;5061778;28;20213;-64
2022/08/21 01:15:30;;;;;;;3.27;2.50;;;;;;;;;;5055605;28;20202;-64
2022/08/21 01:17:58;;;;;;;3.00;2.20;;;;;;;;;;5057168;28;20198;-63
2022/08/21 01:20:29;;;;;;;3.60;2.60;;;;;;;;;;5063762;28;20229;-64
2022/08/21 01:23:00;;;;;;;2.83;2.17;;;;;;;;;;5066338;28;20610;-64
2022/08/21 01:25:39;;;;;;;2.97;2.23;;;;;;;;;;5056927;28;20209;-63
2022/08/21 01:28:23;;;;;;;3.03;2.20;;;;;;;;;;5059991;28;20218;-64
2022/08/21 01:30:54;;;;;;;2.93;2.37;;;;;;;;;;5056162;28;20736;-64
2022/08/21 01:33:24;;;;;;;4.40;2.50;;;;;;;;;;5049456;28;20226;-64
2022/08/21 01:35:56;;;;;;;3.63;2.30;;;;;;;;;;5047367;28;20635;-64
2022/08/21 01:38:28;;;;;;;3.67;2.10;;;;;;;;;;5062011;28;20218;-63
2022/08/21 01:41:01;;;;;;;5.17;2.20;;;;;;;;;;5067045;28;20213;-63
2022/08/21 01:43:31;;;;;;;3.00;2.30;;;;;;;;;;5068009;28;20208;-64
2022/08/21 01:46:08;;;;;;;2.67;2.20;;;;;;;;;;5064710;28;20197;-63
2022/08/21 01:48:40;;;;;;;3.67;2.47;;;;;;;;;;5058940;28;20229;-63
2022/08/21 01:51:12;;;;;;;3.73;2.37;;;;;;;;;;5064047;28;20580;-63
2022/08/21 01:53:45;;;;;;;3.63;2.60;;;;;;;;;;5034374;28;20602;-63
2022/08/21 01:56:15;;;;;;;2.80;2.40;;;;;;;;;;5052488;28;20201;-64
2022/08/21 01:58:47;;;;;;;4.33;2.20;;;;;;;;;;5050836;28;20196;-64
2022/08/21 02:01:18;;;;;;;3.23;2.50;;;;;;;;;;5079459;28;20220;-64
2022/08/21 02:03:48;;;;;;;3.53;2.33;;;;;;;;;;5058753;28;20222;-63
2022/08/21 02:06:19;;;;;;;4.77;2.43;;;;;;;;;;5045609;28;20203;-64
2022/08/21 02:08:50;;;;;;;3.77;2.53;;;;;;;;;;5072197;28;20189;-63
2022/08/21 02:11:19;;;;;;;3.90;2.47;;;;;;;;;;5059943;28;20190;-63
2022/08/21 02:13:49;;;;;;;3.57;2.40;;;;;;;;;;5057746;28;20704;-64
2022/08/21 02:16:21;;;;;;;3.53;2.53;;;;;;;;;;5055474;28;20198;-64
2022/08/21 02:18:50;;;;;;;2.73;2.17;;;;;;;;;;5063089;28;20198;-64
2022/08/21 02:21:20;;;;;;;3.33;2.50;;;;;;;;;;5050712;28;20209;-64
2022/08/21 02:23:50;;;;;;;3.93;2.30;;;;;;;;;;5036861;28;20202;-63
2022/08/21 02:26:22;;;;;;;4.17;2.60;;;;;;;;;;5043647;28;20419;-63
2022/08/21 02:28:54;;;;;;;2.57;2.37;;;;;;;;;;5049445;28;20205;-63
2022/08/21 02:31:24;;;;;;;3.77;2.53;;;;;;;;;;5038757;28;20216;-63
2022/08/21 02:33:54;;;;;;;5.40;2.67;;;;;;;;;;5057561;28;20639;-63
2022/08/21 02:36:23;;;;;;;3.50;2.30;;;;;;;;;;5041310;28;20635;-64
2022/08/21 02:38:56;;;;;;;4.03;2.77;;;;;;;;;;5055411;28;21523;-63
2022/08/21 02:41:24;;;;;;;4.30;2.77;;;;;;;;;;5065847;28;20198;-63
2022/08/21 02:43:55;;;;;;;7.20;2.97;;;;;;;;;;5055850;28;20186;-63
2022/08/21 02:46:25;;;;;;;3.23;2.47;;;;;;;;;;5067778;28;20194;-63
2022/08/21 02:48:56;;;;;;;4.23;2.97;;;;;;;;;;5067424;28;20205;-63
2022/08/21 02:51:27;;;;;;;3.43;2.77;;;;;;;;;;5040483;28;20198;-63
2022/08/21 02:53:56;;;;;;;4.27;2.87;;;;;;;;;;5052208;28;20225;-64
2022/08/21 02:56:25;;;;;;;3.27;2.70;;;;;;;;;;5065352;28;20220;-64
2022/08/21 02:59:00;;;;;;;3.17;2.50;;;;;;;;;;5065626;28;20697;-63
2022/08/21 03:01:31;;;;;;;5.10;2.60;;;;;;;;;;5066036;28;20706;-63
2022/08/21 03:04:02;;;;;;;3.53;2.37;;;;;;;;;;5048028;28;20644;-64
2022/08/21 03:06:33;;;;;;;3.53;2.50;;;;;;;;;;5067497;28;20197;-63
2022/08/21 03:09:05;;;;;;;3.67;2.23;;;;;;;;;;5072187;28;20693;-63
2022/08/21 03:11:35;;;;;;;3.70;2.20;;;;;;;;;;5070281;28;20194;-63
2022/08/21 03:14:05;;;;;;;3.13;2.37;;;;;;;;;;5050607;28;20214;-63
2022/08/21 03:16:36;;;;;;;3.70;2.27;;;;;;;;;;5055411;28;20218;-63
2022/08/21 03:19:08;;;;;;;2.97;1.97;;;;;;;;;;5055928;28;20198;-63
2022/08/21 03:22:10;;;;;;;3.20;2.40;;;;;;;;;;5045952;28;20288;-63
2022/08/21 03:24:41;;;;;;;2.70;2.13;;;;;;;;;;5051547;28;20202;-63
2022/08/21 03:27:15;;;;;;;4.07;2.27;;;;;;;;;;5062841;28;20206;-64
2022/08/21 03:29:54;;;;;;;4.27;2.33;;;;;;;;;;5058384;28;20189;-63
2022/08/21 03:32:25;;;;;;;6.43;2.53;;;;;;;;;;5045605;28;20202;-63
2022/08/21 03:34:57;;;;;;;4.03;2.37;;;;;;;;;;5051258;28;20240;-63
2022/08/21 03:37:26;;;;;;;5.60;2.60;;;;;;;;;;5059811;28;20198;-63
2022/08/21 03:40:00;;;;;;;4.57;2.47;;;;;;;;;;5064505;28;20201;-63
2022/08/21 03:42:30;;;;;;;4.63;3.03;;;;;;;;;;5068241;28;20205;-63
2022/08/21 03:45:00;;;;;;;4.40;2.87;;;;;;;;;;5047446;28;20209;-63
2022/08/21 03:47:35;;;;;;;4.37;2.97;;;;;;;;;;5062456;28;20197;-63
2022/08/21 03:50:07;;;;;;;6.23;2.97;;;;;;;;;;5070246;28;20280;-63
2022/08/21 03:52:38;;;;;;;5.57;2.87;;;;;;;;;;5056187;28;20228;-63
2022/08/21 03:55:12;;;;;;;3.87;2.90;;;;;;;;;;5050313;28;20194;-63
2022/08/21 03:57:45;;;;;;;6.00;2.90;;;;;;;;;;5051123;28;20237;-63
2022/08/21 04:00:14;;;;;;;3.73;2.83;;;;;;;;;;5052215;28;20277;-63
2022/08/21 04:02:50;;;;;;;3.13;2.60;;;;;;;;;;5024290;28;20214;-63
2022/08/21 04:05:27;;;;;;;3.73;2.33;;;;;;;;;;5039182;28;20194;-63
2022/08/21 04:07:58;;;;;;;4.77;2.60;;;;;;;;;;5037581;28;20190;-63
2022/08/21 04:10:30;;;;;;;4.80;2.77;;;;;;;;;;5055307;28;20202;-63
2022/08/21 04:12:59;;;;;;;4.17;2.90;;;;;;;;;;5032073;28;20226;-63
2022/08/21 04:15:31;;;;;;;5.70;2.60;;;;;;;;;;5046714;28;20212;-63
2022/08/21 04:18:06;;;;;;;5.40;2.60;;;;;;;;;;5023464;28;20205;-63
2022/08/21 04:21:02;;;;;;;2.80;2.50;;;;;;;;;;5028056;28;20216;-66
2022/08/21 04:23:39;;;;;;;3.23;2.80;;;;;;;;;;5046956;28;20199;-66
2022/08/21 04:26:10;;;;;;;5.17;2.53;;;;;;;;;;5023845;28;20767;-67
2022/08/21 04:28:41;;;;;;;3.73;2.60;;;;;;;;;;5018472;28;20635;-67
2022/08/21 04:31:13;;;;;;;4.47;2.90;;;;;;;;;;5051223;28;20264;-66
2022/08/21 04:33:45;;;;;;;3.50;3.00;;;;;;;;;;5044496;28;20242;-66
2022/08/21 04:36:16;;;;;;;5.00;2.80;;;;;;;;;;5045511;28;20194;-66
2022/08/21 04:38:52;;;;;;;3.73;2.37;;;;;;;;;;5046682;28;20206;-66
2022/08/21 04:41:23;;;;;;;3.90;2.23;;;;;;;;;;5047479;28;20211;-66
2022/08/21 04:43:56;;;;;;;4.10;2.50;;;;;;;;;;5031764;28;20547;-67
2022/08/21 04:46:26;;;;;;;5.83;2.60;;;;;;;;;;5028832;28;20199;-65
2022/08/21 04:49:01;;;;;;;4.73;3.27;;;;;;;;;;5053342;28;20200;-64
2022/08/21 04:51:37;;;;;;;4.30;2.57;;;;;;;;;;5048184;28;20268;-67
2022/08/21 04:54:20;;;;;;;5.63;3.00;;;;;;;;;;5043944;28;20218;-68
2022/08/21 04:56:56;;;;;;;5.57;2.60;;;;;;;;;;5048500;28;20191;-64
2022/08/21 04:59:31;;;;;;;3.63;2.40;;;;;;;;;;5057585;28;20212;-64
2022/08/21 05:02:10;;;;;;;4.90;2.53;;;;;;;;;;5063109;28;20196;-63
2022/08/21 05:04:44;;;;;;;3.90;2.60;;;;;;;;;;5066794;28;20197;-63
2022/08/21 05:07:19;;;;;;;6.23;2.80;;;;;;;;;;5070293;28;20189;-63
2022/08/21 05:10:13;;;;;;;4.00;2.43;;;;;;;;;;5071744;28;20199;-63
2022/08/21 05:12:49;;;;;;;5.40;2.70;;;;;;;;;;5070054;28;20410;-63
2022/08/21 05:15:23;;;;;;;4.10;2.80;;;;;;;;;;5073894;28;20209;-63
2022/08/21 05:17:55;;;;;;;4.43;2.57;;;;;;;;;;5068763;28;20227;-63
2022/08/21 05:20:30;;;;;;;4.33;2.70;;;;;;;;;;5096322;28;20188;-63
2022/08/21 05:23:02;;;;;;;4.13;2.80;;;;;;;;;;5087426;28;20229;-63
2022/08/21 05:25:33;;;;;;;6.47;2.73;;;;;;;;;;5065527;28;20649;-63
2022/08/21 05:28:03;;;;;;;5.87;2.60;;;;;;;;;;5071993;28;20248;-63
2022/08/21 05:30:35;;;;;;;4.87;2.87;;;;;;;;;;5074996;28;20568;-66
2022/08/21 05:33:06;;;;;;;3.80;2.80;;;;;;;;;;5081927;28;20214;-66
2022/08/21 05:35:37;;;;;;;5.10;2.80;;;;;;;;;;5068510;28;20847;-66
2022/08/21 05:38:09;;;;;;;4.03;2.30;;;;;;;;;;5056571;28;20190;-66
2022/08/21 05:40:49;;;;;;;4.70;2.40;;;;;;;;;;5090382;28;20274;-67
2022/08/21 05:43:24;;;;;;;3.57;2.57;;;;;;;;;;5086884;28;20196;-67
2022/08/21 05:45:53;;;;;;;4.73;2.50;;;;;;;;;;5087200;28;20193;-67
2022/08/21 05:48:25;;;;;;;4.07;2.37;;;;;;;;;;5073082;28;20200;-66
2022/08/21 05:50:56;;;;;;;4.93;2.40;;;;;;;;;;5064571;28;20626;-66
2022/08/21 05:53:27;;;;;;;6.73;2.43;;;;;;;;;;5054987;28;20312;-66
2022/08/21 05:56:00;;;;;;;4.23;2.40;;;;;;;;;;5081290;28;20216;-66
2022/08/21 05:58:30;;;;;;;4.67;2.73;;;;;;;;;;5085333;28;20197;-66
2022/08/21 06:01:03;;;;;;;5.73;2.53;;;;;;;;;;5075678;28;20748;-65
2022/08/21 06:03:43;;;;;;;5.17;3.07;;;;;;;;;;5081623;28;20288;-66
2022/08/21 06:06:15;;;;;;;5.20;2.60;;;;;;;;;;5068466;28;20212;-63
2022/08/21 06:08:46;;;;;;;4.30;2.43;;;;;;;;;;5093422;28;20551;-63
2022/08/21 06:11:18;;;;;;;4.83;2.60;;;;;;;;;;5074857;28;20682;-63
2022/08/21 06:13:55;;;;;;;3.57;2.33;;;;;;;;;;5074138;28;20221;-63
2022/08/21 06:16:24;;;;;;;5.50;2.80;;;;;;;;;;5056207;28;20217;-65
2022/08/21 06:18:55;;;;;;;6.43;2.97;;;;;;;;;;5068494;28;20660;-66
2022/08/21 06:21:30;;;;;;;5.87;2.70;;;;;;;;;;5082669;28;20193;-66
2022/08/21 06:24:00;;;;;;;9.40;2.87;;;;;;;;;;5070973;28;20203;-66
2022/08/21 06:26:32;;;;;;;4.20;2.53;;;;;;;;;;5074402;28;20245;-66
2022/08/21 06:29:02;;;;;;;4.37;2.33;;;;;;;;;;5077307;28;20229;-66
2022/08/21 06:31:45;;;;;;;5.80;2.83;;;;;;;;;;5070615;28;20285;-63
2022/08/21 06:34:15;;;;;;;6.03;2.60;;;;;;;;;;5077636;28;20237;-63
2022/08/21 06:36:48;;;;;;;5.73;2.70;;;;;;;;;;5066359;28;20216;-63
2022/08/21 06:39:22;;;;;;;4.97;2.90;;;;;;;;;;5083888;28;20224;-63
2022/08/21 06:41:59;;;;;;;5.73;2.57;;;;;;;;;;5086663;28;20189;-62
2022/08/21 06:44:33;;;;;;;4.83;2.90;;;;;;;;;;5079105;28;20650;-63
2022/08/21 06:47:03;;;;;;;5.40;2.30;;;;;;;;;;5077185;28;20254;-66
2022/08/21 06:49:39;;;;;;;4.00;2.40;;;;;;;;;;5086819;28;20192;-65
2022/08/21 06:52:11;;;;;;;4.17;2.37;;;;;;;;;;5071969;28;20209;-66
2022/08/21 06:54:41;;;;;;;7.57;2.70;;;;;;;;;;5083306;28;20208;-66
2022/08/21 06:57:13;;;;;;;7.47;2.70;;;;;;;;;;5085588;28;20212;-66
2022/08/21 06:59:44;;;;;;;5.17;2.00;;;;;;;;;;5086311;28;20181;-67
2022/08/21 07:02:14;;;;;;;5.63;2.53;;;;;;;;;;5057973;28;20197;-67
2022/08/21 07:04:43;;;;;;;4.27;2.17;;;;;;;;;;5083232;28;20228;-67
2022/08/21 07:07:16;;;;;;;4.60;2.17;;;;;;;;;;5069725;28;20201;-68
2022/08/21 07:09:48;;;;;;;4.57;2.33;;;;;;;;;;5081445;28;20185;-67
2022/08/21 07:12:21;;;;;;;5.83;2.30;;;;;;;;;;5069978;28;20190;-67
2022/08/21 07:14:52;;;;;;;5.27;2.10;;;;;;;;;;5066991;28;20299;-67
2022/08/21 07:17:22;;;;;;;5.30;2.43;;;;;;;;;;5094212;28;20208;-67
2022/08/21 07:19:51;;;;;;;8.67;2.27;;;;;;;;;;5090820;28;20622;-68
2022/08/21 07:22:23;;;;;;;6.20;2.60;;;;;;;;;;5091120;28;20193;-65
2022/08/21 07:24:54;;;;;;;4.20;2.40;;;;;;;;;;5055794;28;20333;-64
2022/08/21 07:27:25;;;;;;;4.53;2.20;;;;;;;;;;5078976;28;20939;-67
2022/08/21 07:29:57;;;;;;;5.90;2.77;;;;;;;;;;5082302;28;20197;-66
2022/08/21 07:32:27;;;;;;;6.30;2.40;;;;;;;;;;5086356;28;20196;-67
2022/08/21 07:34:57;;;;;;;5.67;2.80;;;;;;;;;;5088155;28;20209;-68
2022/08/21 07:37:28;;;;;;;4.70;2.30;;;;;;;;;;5087931;28;20200;-70
2022/08/21 07:39:57;;;;;;;3.33;2.10;;;;;;;;;;5075662;28;20210;-68
2022/08/21 07:42:28;;;;;;;6.37;2.00;;;;;;;;;;5080893;28;20197;-68
2022/08/21 07:44:59;;;;;;;5.97;2.20;;;;;;;;;;5084060;28;20286;-67
2022/08/21 07:47:28;;;;;;;5.27;2.33;;;;;;;;;;5094988;28;20638;-68
2022/08/21 07:50:11;;;;;;;5.33;2.20;;;;;;;;;;5085557;28;20295;-63
2022/08/21 07:52:41;;;;;;;6.33;2.53;;;;;;;;;;5057858;28;20209;-65
2022/08/21 07:55:15;;;;;;;5.57;2.13;;;;;;;;;;5088509;28;20699;-69
2022/08/21 07:57:49;;;;;;;6.47;2.30;;;;;;;;;;5079116;28;20236;-67
2022/08/21 08:00:22;;;;;;;6.13;2.20;;;;;;;;;;5081927;28;20244;-66
2022/08/21 08:02:53;;;;;;;5.13;2.10;;;;;;;;;;5089112;28;20651;-67
2022/08/21 08:05:25;;;;;;;6.43;2.20;;;;;;;;;;5072227;28;20376;-66
2022/08/21 08:07:57;;;;;;;6.77;2.40;;;;;;;;;;5087744;28;20192;-67
2022/08/21 08:10:28;;;;;;;9.07;3.00;;;;;;;;;;5080144;28;20310;-67
2022/08/21 08:12:59;;;;;;;12.70;2.73;;;;;;;;;;5087835;28;20213;-66
2022/08/21 08:15:30;;;;;;;8.03;2.60;;;;;;;;;;5065704;28;20225;-66
2022/08/21 08:18:06;;;;;;;7.73;2.30;;;;;;;;;;5085371;28;20204;-66
2022/08/21 08:20:38;;;;;;;6.37;2.27;;;;;;;;;;5088628;28;20582;-63
2022/08/21 08:23:11;;;;;;;4.43;2.30;;;;;;;;;;5091473;28;20570;-63
2022/08/21 08:25:44;;;;;;;6.57;2.50;;;;;;;;;;5071097;28;20200;-63
2022/08/21 08:28:16;;;;;;;8.93;2.57;;;;;;;;;;5081089;28;20677;-63
2022/08/21 08:30:49;;;;;;;7.20;2.50;;;;;;;;;;5094041;28;20212;-64
2022/08/21 08:33:51;;;;;;;7.23;2.60;;;;;;;;;;5091473;28;20280;-64
2022/08/21 08:36:18;;;;;;;9.93;2.80;;;;;;;;;;5091177;28;20669;-67
2022/08/21 08:38:47;;;;;;;7.50;2.43;;;;;;;;;;5069815;28;20209;-67
2022/08/21 08:41:19;;;;;;;6.67;2.53;;;;;;;;;;5089107;28;20184;-67
2022/08/21 08:43:52;;;;;;;9.10;2.97;;;;;;;;;;5070742;28;20224;-66
2022/08/21 08:46:35;;;;;;;6.63;2.57;;;;;;;;;;5072778;28;20196;-64
2022/08/21 08:49:14;;;;;;;6.33;2.23;;;;;;;;;;5071388;28;20185;-64
2022/08/21 08:51:52;;;;;;;5.27;2.00;;;;;;;;;;5063024;28;20217;-67
2022/08/21 08:54:38;;;;;;;9.97;3.07;;;;;;;;;;5080014;28;20215;-67
2022/08/21 08:57:16;;;;;;;6.70;2.40;;;;;;;;;;5084797;28;20181;-67
2022/08/21 08:59:55;;;;;;;5.60;1.80;;;;;;;;;;5068662;28;20205;-67
2022/08/21 09:02:27;;;;;;;4.17;1.70;;;;;;;;;;5069074;28;20551;-63
2022/08/21 09:05:00;;;;;;;6.30;2.37;;;;;;;;;;5087547;28;20200;-65
2022/08/21 09:07:38;;;;;;;7.13;2.23;;;;;;;;;;5070611;28;20490;-67
2022/08/21 09:10:39;;;;;;;5.10;1.60;;;;;;;;;;5071127;28;20685;-66
2022/08/21 09:13:16;;;;;;;5.63;1.93;;;;;;;;;;5084801;28;20198;-68
2022/08/21 09:16:05;;;;;;;9.13;2.47;;;;;;;;;;5082393;28;20235;-68
2022/08/21 09:18:40;;;;;;;5.70;2.03;;;;;;;;;;5093263;28;20225;-68
2022/08/21 09:21:26;;;;;;;8.17;1.97;;;;;;;;;;5091534;28;20196;-67
2022/08/21 09:23:59;;;;;;;5.57;2.10;;;;;;;;;;5087833;28;20221;-68
2022/08/21 09:26:53;;;;;;;8.83;2.47;;;;;;;;;;5080575;28;20197;-64
2022/08/21 09:29:24;;;;;;;6.43;2.07;;;;;;;;;;5082729;28;20245;-65
2022/08/21 09:31:55;;;;;;;6.17;1.90;;;;;;;;;;5072632;28;20258;-68
2022/08/21 09:34:29;;;;;;;6.23;1.97;;;;;;;;;;5073933;28;20314;-68
2022/08/21 09:36:58;;;;;;;5.13;1.90;;;;;;;;;;5064824;28;20185;-65
2022/08/21 09:39:37;;;;;;;5.77;1.97;;;;;;;;;;5085146;28;20212;-65
2022/08/21 09:42:08;;;;;;;3.63;1.60;;;;;;;;;;5082105;28;20262;-65
2022/08/21 09:44:42;;;;;;;6.80;2.30;;;;;;;;;;5074429;28;20754;-65
2022/08/21 09:47:20;;;;;;;4.70;1.87;;;;;;;;;;5062888;28;20519;-67
2022/08/21 09:49:59;;;;;;;4.93;1.77;;;;;;;;;;5077133;28;20237;-67
2022/08/21 09:52:28;;;;;;;4.67;1.70;;;;;;;;;;5078480;28;20220;-64
2022/08/21 09:54:58;;;;;;;4.20;1.80;;;;;;;;;;5093147;28;20216;-64
2022/08/21 09:57:40;;;;;;;4.30;1.77;;;;;;;;;;5080807;28;20201;-65
2022/08/21 10:00:23;;;;;;;4.43;1.73;;;;;;;;;;5068066;28;20222;-65
2022/08/21 10:02:54;;;;;;;5.87;2.17;;;;;;;;;;5045229;28;20198;-65
2022/08/21 10:05:24;;;;;;;3.83;2.10;;;;;;;;;;5026555;28;20195;-65
2022/08/21 10:07:56;;;;;;;4.67;2.00;;;;;;;;;;5033579;28;20210;-64
2022/08/21 10:10:30;;;;;;;4.03;1.70;;;;;;;;;;5051530;28;20239;-67
2022/08/21 10:13:18;;;;;;;3.70;1.53;;;;;;;;;;5046592;28;20665;-68
2022/08/21 10:15:52;;;;;;;6.30;2.13;;;;;;;;;;5043579;28;20311;-68
2022/08/21 10:18:35;;;;;;;5.07;1.83;;;;;;;;;;5044484;28;20190;-67
2022/08/21 10:21:04;;;;;;;5.80;1.97;;;;;;;;;;5046718;28;20187;-65
2022/08/21 10:23:52;;;;;;;6.67;1.63;;;;;;;;;;5046655;28;20194;-65
2022/08/21 10:26:33;;;;;;;6.03;1.67;;;;;;;;;;5041123;28;20831;-65
2022/08/21 10:29:11;;;;;;;4.87;2.03;;;;;;;;;;5044882;28;20582;-65
2022/08/21 10:31:59;;;;;;;6.80;2.03;;;;;;;;;;5045105;28;20819;-65
2022/08/21 10:34:49;;;;;;;5.77;1.97;;;;;;;;;;5044057;28;20225;-65
2022/08/21 10:37:36;;;;;;;5.60;1.90;;;;;;;;;;5045894;28;20228;-65
2022/08/21 10:40:36;;;;;;;5.87;2.20;;;;;;;;;;5037132;28;20210;-65
2022/08/21 10:43:22;;;;;;;5.40;1.90;;;;;;;;;;4959258;28;20198;-64
2022/08/21 10:46:02;;;;;;;6.03;2.10;;;;;;;;;;5048975;28;20206;-64
2022/08/21 10:48:49;;;;;;;3.20;1.60;;;;;;;;;;5051577;28;20547;-64
2022/08/21 10:51:34;;;;;;;6.47;1.73;;;;;;;;;;5041322;28;20246;-67
2022/08/21 10:54:10;;;;;;;3.93;1.80;;;;;;;;;;5039736;28;20186;-67
2022/08/21 10:57:05;;;;;;;5.33;1.93;;;;;;;;;;5047701;28;20668;-65
2022/08/21 10:59:52;;;;;;;4.93;1.87;;;;;;;;;;5046676;28;20191;-65
2022/08/21 11:02:32;;;;;;;5.63;2.00;;;;;;;;;;5045905;28;21003;-64
2022/08/21 11:05:09;;;;;;;4.13;1.50;;;;;;;;;;5058842;28;20198;-64
2022/08/21 11:07:54;;;;;;;3.93;1.80;;;;;;;;;;5066241;28;20201;-68
2022/08/21 11:10:31;;;;;;;3.87;1.40;;;;;;;;;;5066311;28;20197;-66
2022/08/21 11:13:06;;;;;;;4.43;1.50;;;;;;;;;;5064081;28;20201;-65
2022/08/21 11:15:54;;;;;;;5.40;1.87;;;;;;;;;;5037808;28;20267;-67
2022/08/21 11:18:40;;;;;;;4.33;1.70;;;;;;;;;;5059040;28;20185;-66
2022/08/21 11:21:27;;;;;;;3.70;1.37;;;;;;;;;;5064982;28;20294;-65
2022/08/21 11:24:03;;;;;;;3.67;1.73;;;;;;;;;;5068004;28;20209;-65
2022/08/21 11:26:51;;;;;;;4.70;1.83;;;;;;;;;;5047508;28;20212;-64
2022/08/21 11:29:29;;;;;;;3.30;1.50;;;;;;;;;;5065867;28;20242;-65
2022/08/21 11:32:27;;;;;;;6.60;1.90;;;;;;;;;;5057874;28;20221;-64
2022/08/21 11:35:17;;;;;;;4.50;1.77;;;;;;;;;;5056049;28;20226;-65
2022/08/21 11:38:08;;;;;;;5.20;1.50;;;;;;;;;;5049824;28;20279;-66
2022/08/21 11:40:55;;;;;;;5.17;1.87;;;;;;;;;;5065248;28;20208;-67
2022/08/21 11:43:38;;;;;;;3.77;1.57;;;;;;;;;;5065467;28;20259;-66
2022/08/21 11:46:19;;;;;;;4.17;1.80;;;;;;;;;;5063038;28;20212;-66
2022/08/21 11:48:49;;;;;;;3.47;1.50;;;;;;;;;;5081164;28;20209;-66
2022/08/21 11:51:30;;;;;;;3.53;1.50;;;;;;;;;;5047733;28;20240;-64
2022/08/21 11:54:18;;;;;;;3.63;1.57;;;;;;;;;;5073517;28;20392;-64
2022/08/21 11:56:59;;;;;;;5.33;1.30;;;;;;;;;;5074290;28;20213;-64
2022/08/21 11:59:51;;;;;;;5.20;1.67;;;;;;;;;;5065781;28;20589;-65
2022/08/21 12:02:36;;;;;;;3.73;1.80;;;;;;;;;;5063858;28;20213;-64
2022/08/21 12:05:09;;;;;;;4.47;1.80;;;;;;;;;;5054906;28;20183;-65
2022/08/21 12:07:44;;;;;;;3.77;1.80;;;;;;;;;;5052377;28;20218;-66
2022/08/21 12:10:23;;;;;;;3.37;1.60;;;;;;;;;;5037790;28;20222;-66
2022/08/21 12:13:08;;;;;;;3.57;1.30;;;;;;;;;;5062824;28;20186;-66
2022/08/21 12:15:39;;;;;;;3.47;1.53;;;;;;;;;;5047875;28;20251;-66
2022/08/21 12:18:30;;;;;;;3.57;1.70;;;;;;;;;;5062563;28;20197;-67
2022/08/21 12:21:23;;;;;;;3.93;1.80;;;;;;;;;;5059490;28;20194;-67
2022/08/21 12:24:09;;;;;;;3.80;1.57;;;;;;;;;;5062091;28;20198;-68
2022/08/21 12:27:21;;;;;;;3.50;1.67;;;;;;;;;;5061542;28;20210;-66
2022/08/21 12:29:49;;;;;;;4.60;1.93;;;;;;;;;;5066838;28;20224;-68
2022/08/21 12:32:18;;;;;;;3.20;1.57;;;;;;;;;;5050910;28;20194;-67
2022/08/21 12:35:08;;;;;;;5.07;1.97;;;;;;;;;;5067913;28;20761;-67
2022/08/21 12:38:13;;;;;;;3.13;1.67;;;;;;;;;;5052557;28;20800;-64
2022/08/21 12:41:02;;;;;;;4.53;1.73;;;;;;;;;;5056086;28;20596;-64
2022/08/21 12:43:44;;;;;;;4.10;1.80;;;;;;;;;;5061855;28;20303;-64
2022/08/21 12:46:17;;;;;;;4.30;2.03;;;;;;;;;;5050538;28;20193;-68
2022/08/21 12:49:00;;;;;;;4.97;1.97;;;;;;;;;;5065355;28;20209;-67
2022/08/21 12:51:33;;;;;;;3.80;1.90;;;;;;;;;;5059451;28;20220;-67
2022/08/21 12:54:04;;;;;;;4.20;1.90;;;;;;;;;;5050564;28;20285;-67
2022/08/21 12:56:35;;;;;;;3.03;1.93;;;;;;;;;;5067658;28;20249;-64
2022/08/21 12:59:15;;;;;;;3.67;2.13;;;;;;;;;;5066235;28;20189;-64
2022/08/21 13:01:50;;;;;;;3.63;2.03;;;;;;;;;;5065338;28;20253;-68
2022/08/21 13:04:38;;;;;;;4.57;2.10;;;;;;;;;;5065157;28;20791;-69
2022/08/21 13:07:12;;;;;;;2.37;1.87;;;;;;;;;;5051066;28;20209;-64
2022/08/21 13:09:52;;;;;;;5.60;1.70;;;;;;;;;;5050951;28;20198;-64
2022/08/21 13:12:26;;;;;;;4.13;2.07;;;;;;;;;;5062683;28;20205;-64
2022/08/21 13:15:04;;;;;;;5.87;2.17;;;;;;;;;;5045775;28;20301;-64
2022/08/21 13:17:40;;;;;;;5.03;1.80;;;;;;;;;;5063577;28;20189;-64
2022/08/21 13:20:20;;;;;;;2.63;1.77;;;;;;;;;;5044870;28;20643;-64
2022/08/21 13:22:49;;;;;;;3.40;1.77;;;;;;;;;;5058653;28;20548;-64
2022/08/21 13:25:21;;;;;;;4.73;2.17;;;;;;;;;;5064375;28;20198;-64
2022/08/21 13:28:01;;;;;;;4.67;2.17;;;;;;;;;;5042649;28;20251;-64
2022/08/21 13:30:32;;;;;;;5.23;2.07;;;;;;;;;;5065848;28;20194;-64
2022/08/21 13:33:09;;;;;;;4.27;2.07;;;;;;;;;;5061474;28;20733;-64
2022/08/21 13:36:06;;;;;;;3.93;1.97;;;;;;;;;;5038065;28;20233;-64
2022/08/21 13:38:40;;;;;;;5.53;1.97;;;;;;;;;;5060825;28;20214;-64
2022/08/21 13:41:27;;;;;;;4.13;1.80;;;;;;;;;;5064307;28;20201;-64
2022/08/21 13:44:01;;;;;;;4.93;2.10;;;;;;;;;;5060189;28;20195;-64
2022/08/21 13:46:37;;;;;;;4.43;1.90;;;;;;;;;;5049778;28;20216;-64
2022/08/21 13:49:06;;;;;;;6.70;2.00;;;;;;;;;;5049246;28;20201;-64
2022/08/21 13:51:38;;;;;;;5.13;1.90;;;;;;;;;;5044866;28;20218;-65
2022/08/21 13:54:27;;;;;;;4.43;1.90;;;;;;;;;;5065132;28;20259;-64
2022/08/21 13:56:58;;;;;;;3.97;1.97;;;;;;;;;;5039253;28;20316;-68
2022/08/21 13:59:40;;;;;;;3.53;1.80;;;;;;;;;;5052916;28;20240;-68
2022/08/21 14:02:27;;;;;;;5.07;2.17;;;;;;;;;;5062142;28;20708;-67
2022/08/21 14:05:01;;;;;;;4.77;2.07;;;;;;;;;;5063317;28;20203;-67
2022/08/21 14:07:40;;;;;;;7.83;2.30;;;;;;;;;;5056381;28;20221;-68
2022/08/21 14:10:20;;;;;;;6.10;2.40;;;;;;;;;;5012675;28;20217;-68
2022/08/21 14:12:57;;;;;;;6.80;1.97;;;;;;;;;;5045204;28;20197;-67
2022/08/21 14:15:31;;;;;;;3.50;1.87;;;;;;;;;;5043703;28;20224;-65
2022/08/21 14:18:17;;;;;;;5.00;2.13;;;;;;;;;;5048642;28;20204;-65
2022/08/21 14:20:49;;;;;;;3.93;1.80;;;;;;;;;;5048624;28;20189;-67
2022/08/21 14:23:25;;;;;;;5.27;2.00;;;;;;;;;;5058501;28;20187;-67
2022/08/21 14:25:59;;;;;;;5.23;2.20;;;;;;;;;;5045489;28;20253;-64
2022/08/21 14:28:38;;;;;;;4.30;2.10;;;;;;;;;;5033165;28;20218;-64
2022/08/21 14:31:34;;;;;;;15.87;14.23;;;;;;;;;;5050804;28;20205;-68
2022/08/21 14:34:15;;;;;;;36.70;33.20;;;;;;;;;;5058610;28;20285;-69
2022/08/21 14:36:49;;;;;;;14.43;12.97;;;;;;;;;;5066127;28;20205;-67
2022/08/21 14:39:20;;;;;;;14.00;11.03;;;;;;;;;;5028416;28;20204;-67
2022/08/21 14:41:53;;;;;;;12.53;10.40;;;;;;;;;;5064021;28;20201;-67
2022/08/21 14:44:24;;;;;;;8.03;6.30;;;;;;;;;;5062309;28;20626;-67
2022/08/21 14:46:55;;;;;;;8.00;5.07;;;;;;;;;;5065576;28;20194;-67
2022/08/21 14:49:28;;;;;;;5.37;4.67;;;;;;;;;;5047375;28;20201;-67
2022/08/21 14:52:00;;;;;;;6.10;3.73;;;;;;;;;;5027428;28;20202;-65
2022/08/21 14:54:33;;;;;;;7.50;3.70;;;;;;;;;;5051266;28;20208;-65
2022/08/21 14:57:08;;;;;;;6.10;3.13;;;;;;;;;;5064700;28;20205;-64
2022/08/21 14:59:42;;;;;;;5.80;2.83;;;;;;;;;;5060885;28;20197;-64
2022/08/21 15:02:13;;;;;;;5.43;3.00;;;;;;;;;;5059016;28;20723;-63
2022/08/21 15:04:47;;;;;;;4.30;2.40;;;;;;;;;;5067482;28;20277;-64
2022/08/21 15:07:19;;;;;;;5.53;3.90;;;;;;;;;;5065422;28;20674;-64
2022/08/21 15:09:51;;;;;;;5.50;2.90;;;;;;;;;;5065169;28;20276;-64
2022/08/21 15:12:25;;;;;;;6.73;2.93;;;;;;;;;;5061282;28;20181;-68
2022/08/21 15:14:54;;;;;;;8.10;3.43;;;;;;;;;;5050206;28;20225;-68
2022/08/21 15:17:26;;;;;;;30.93;22.23;;;;;;;;;;5066557;28;20309;-67
2022/08/21 15:19:56;;;;;;;25.60;20.30;;;;;;;;;;5066103;28;20520;-67
2022/08/21 15:22:28;;;;;;;17.50;12.70;;;;;;;;;;5068230;28;20200;-64
2022/08/21 15:25:00;;;;;;;14.40;9.43;;;;;;;;;;5066121;28;20183;-65
2022/08/21 15:27:47;;;;;;;9.33;7.77;;;;;;;;;;5058673;28;20233;-67
2022/08/21 15:30:19;;;;;;;9.47;6.27;;;;;;;;;;5063360;28;20190;-67
2022/08/21 15:32:51;;;;;;;12.83;11.37;;;;;;;;;;5070536;28;20439;-67